Terminal Aerodrome Forecast
Issued by NWS

Home | Current Version | Previous Version | Text Only | Print | Product List | Glossary On
Versions: 1 2 3 4 5 6 7 8 9 10 11 12 13 14 15 16 17 18 19 20 21 22 23 24 25
660
FTUS46 KSEW 252338
TAFSEA
TAF
KSEA 252338Z 2600/2706 19010G18KT P6SM VCSH SCT022 BKN080
      TEMPO 2600/2604 BKN022 OVC040
     FM260400 20007KT P6SM BKN035
     FM260800 18005KT P6SM OVC019
     FM261800 22005KT P6SM BKN015
     FM262300 25005KT P6SM SCT035=

USA.gov is the U.S. government's official web portal to all federal, state and local government web resources and services.